Time;durP1;ratioP1;P1;durP2;ratioP2;P2;SDS_P1;SDS_P2;PMS_P1;PMS_P2;Temp;Humidity;BMP_temperature;BMP_pressure;BME280_temperature;BME280_humidity;BME280_pressure;Samples;Min_cycle;Max_cycle;Signal;HPM_P1;HPM_P2
2022/03/30 00:00:46;;;;;;;67.08;34.98;;;;;;;4.04;76.47;98110.37;1748100;81;21485;-41
2022/03/30 00:03:12;;;;;;;66.77;34.27;;;;;;;4.06;76.21;98107.23;1748052;82;21023;-41
2022/03/30 00:05:38;;;;;;;62.80;34.92;;;;;;;4.07;76.13;98111.50;1748048;82;21856;-42
2022/03/30 00:08:06;;;;;;;69.82;34.58;;;;;;;4.04;76.18;98113.80;1748071;81;21497;-43
2022/03/30 00:10:32;;;;;;;61.25;33.53;;;;;;;4.07;76.12;98114.57;1748174;82;20992;-40
2022/03/30 00:12:59;;;;;;;66.07;34.47;;;;;;;4.09;76.03;98110.97;1748320;82;20957;-41
2022/03/30 00:15:25;;;;;;;62.10;32.90;;;;;;;4.10;75.63;98112.66;1748123;82;21465;-43
2022/03/30 00:17:51;;;;;;;63.90;33.38;;;;;;;4.12;75.68;98108.23;1748059;82;20981;-40
2022/03/30 00:20:18;;;;;;;63.05;33.88;;;;;;;4.15;75.57;98115.89;1748408;82;20965;-41
2022/03/30 00:22:45;;;;;;;61.60;33.85;;;;;;;4.18;75.49;98105.78;1748178;81;20980;-42
2022/03/30 00:25:13;;;;;;;68.57;36.17;;;;;;;4.18;75.42;98109.69;1748134;82;21519;-41
2022/03/30 00:27:46;;;;;;;67.20;36.42;;;;;;;4.19;75.25;98107.02;1748134;82;20988;-40
2022/03/30 00:30:14;;;;;;;68.45;36.98;;;;;;;4.20;75.22;98092.23;1747884;82;20993;-41
2022/03/30 00:32:40;;;;;;;67.37;35.95;;;;;;;4.16;75.35;98095.45;1748036;82;21474;-41
2022/03/30 00:35:08;;;;;;;66.25;35.63;;;;;;;4.16;75.21;98092.84;1748132;82;21522;-42
2022/03/30 00:37:35;;;;;;;68.78;37.85;;;;;;;4.15;75.27;98092.94;1748203;82;21025;-41
2022/03/30 00:40:03;;;;;;;66.55;36.98;;;;;;;4.13;75.39;98095.62;1748213;82;20988;-41
2022/03/30 00:42:30;;;;;;;65.78;35.55;;;;;;;4.12;75.33;98100.42;1748058;82;21012;-40
2022/03/30 00:44:56;;;;;;;65.20;35.13;;;;;;;4.10;75.08;98091.85;1748077;82;20981;-41
2022/03/30 00:47:26;;;;;;;69.20;35.30;;;;;;;3.99;75.60;98088.93;1747938;81;21005;-41
2022/03/30 00:49:53;;;;;;;62.93;36.53;;;;;;;3.87;76.40;98089.50;1748151;82;21020;-42
2022/03/30 00:52:20;;;;;;;69.60;36.77;;;;;;;3.91;76.11;98088.44;1748481;82;21024;-42
2022/03/30 00:54:50;;;;;;;69.62;38.53;;;;;;;3.93;76.11;98085.30;1748047;82;20976;-42
2022/03/30 00:57:19;;;;;;;69.40;38.15;;;;;;;3.96;75.86;98086.47;1748081;82;21514;-40
2022/03/30 00:59:45;;;;;;;74.25;37.15;;;;;;;3.94;75.88;98083.94;1748131;82;20988;-42
2022/03/30 01:02:11;;;;;;;68.55;36.15;;;;;;;3.97;76.26;98081.20;1748016;82;20996;-41
2022/03/30 01:04:38;;;;;;;67.72;36.13;;;;;;;3.98;76.34;98077.69;1748047;82;21032;-40
2022/03/30 01:07:04;;;;;;;69.32;37.38;;;;;;;4.03;76.32;98083.95;1748030;82;21032;-41
2022/03/30 01:09:30;;;;;;;70.95;34.27;;;;;;;4.10;75.84;98077.55;1748022;82;20993;-41
2022/03/30 01:11:57;;;;;;;67.25;33.73;;;;;;;4.13;76.26;98083.05;1748037;82;20961;-41
2022/03/30 01:14:25;;;;;;;71.37;35.77;;;;;;;4.19;75.90;98087.50;1748262;82;20981;-40
2022/03/30 01:16:51;;;;;;;59.58;32.70;;;;;;;4.29;75.64;98071.44;1748298;82;22372;-41
2022/03/30 01:19:17;;;;;;;69.35;35.63;;;;;;;4.29;75.56;98081.37;1748025;82;21012;-40
2022/03/30 01:21:45;;;;;;;74.47;35.50;;;;;;;4.30;75.63;98086.14;1747993;82;21021;-42
2022/03/30 01:24:12;;;;;;;62.62;34.08;;;;;;;4.33;75.46;98085.54;1748159;82;20996;-41
2022/03/30 01:26:40;;;;;;;66.30;33.25;;;;;;;4.37;75.18;98084.92;1748161;82;21020;-42
2022/03/30 01:34:38;;;;;;;61.57;33.80;;;;;;;4.37;75.27;98078.42;1748298;82;21012;-41
2022/03/30 01:37:06;;;;;;;65.60;34.40;;;;;;;4.39;75.30;98077.88;1748243;82;21017;-41
2022/03/30 01:39:32;;;;;;;;;;;;;;;4.37;75.15;98077.12;1750582;81;21852;-42
2022/03/30 01:41:57;;;;;;;62.65;32.85;;;;;;;4.27;75.66;98078.02;1748088;82;20135;-40
2022/03/30 01:44:24;;;;;;;65.55;34.60;;;;;;;4.29;75.56;98072.73;1748074;82;21478;-41
2022/03/30 01:46:52;;;;;;;63.25;33.88;;;;;;;4.26;75.44;98076.34;1748037;82;21469;-40
2022/03/30 01:49:21;;;;;;;68.67;34.05;;;;;;;4.25;75.49;98079.02;1758228;81;21060;-41
2022/03/30 01:51:50;;;;;;;59.23;33.23;;;;;;;4.24;75.37;98072.98;1761162;81;21477;-42
2022/03/30 01:54:22;;;;;;;67.40;33.58;;;;;;;4.21;75.62;98060.94;1761341;81;20945;-42
2022/03/30 01:56:51;;;;;;;66.60;35.20;;;;;;;4.16;75.90;98060.78;1761323;81;21023;-41
2022/03/30 01:59:18;;;;;;;64.35;33.88;;;;;;;4.08;76.31;98054.66;1761345;81;21035;-40
2022/03/30 02:01:44;;;;;;;67.75;34.78;;;;;;;4.08;75.73;98057.27;1761547;81;20984;-41
2022/03/30 02:04:10;;;;;;;63.78;35.05;;;;;;;4.00;76.44;98050.28;1761318;81;20988;-45
2022/03/30 02:06:37;;;;;;;66.87;35.70;;;;;;;3.99;76.49;98048.61;1761400;81;21040;-41
2022/03/30 02:09:04;;;;;;;60.10;34.73;;;;;;;4.00;76.37;98048.97;1761483;81;20980;-42
2022/03/30 02:11:31;;;;;;;68.85;35.52;;;;;;;4.02;76.60;98049.74;1761483;81;21507;-42
2022/03/30 02:13:57;;;;;;;66.10;34.80;;;;;;;4.02;76.68;98048.00;1761574;81;20980;-41
2022/03/30 02:16:24;;;;;;;65.17;34.90;;;;;;;4.05;76.76;98049.59;1761318;81;21015;-42
2022/03/30 02:18:50;;;;;;;58.42;34.20;;;;;;;4.10;76.48;98060.62;1761455;81;20961;-41
2022/03/30 02:21:17;;;;;;;61.10;33.85;;;;;;;4.11;76.48;98051.06;1761403;81;21517;-40
2022/03/30 02:23:45;;;;;;;62.38;34.65;;;;;;;4.12;76.24;98043.18;1761300;81;20984;-40
2022/03/30 02:26:15;;;;;;;62.50;33.58;;;;;;;4.10;76.17;98045.48;1761339;81;21011;-40
2022/03/30 02:28:43;;;;;;;70.80;34.58;;;;;;;4.09;76.24;98043.79;1761394;81;21481;-39
2022/03/30 02:31:11;;;;;;;67.40;33.95;;;;;;;4.08;76.26;98049.46;1761340;81;21038;-41
2022/03/30 02:33:37;;;;;;;60.33;34.08;;;;;;;4.06;76.39;98043.93;1761288;81;20996;-40
2022/03/30 02:36:04;;;;;;;63.25;34.30;;;;;;;4.04;76.34;98046.63;1761427;81;21490;-40
2022/03/30 02:38:31;;;;;;;74.27;35.48;;;;;;;4.02;76.31;98044.53;1761467;81;21596;-41
2022/03/30 02:43:31;;;;;;;73.97;36.00;;;;;;;4.01;76.52;98041.57;1801049;79;23049;-40
2022/03/30 02:45:57;;;;;;;67.50;36.17;;;;;;;3.94;76.40;98046.69;1761860;80;21504;-40
2022/03/30 02:48:28;;;;;;;72.55;36.25;;;;;;;3.87;76.73;98042.23;1761952;80;21042;-41
2022/03/30 02:50:54;;;;;;;;;;;;;;;3.85;76.94;98042.30;1764044;81;20979;-41
2022/03/30 02:53:21;;;;;;;69.67;35.83;;;;;;;3.79;77.44;98042.60;1761934;80;20135;-43
2022/03/30 02:55:47;;;;;;;71.83;38.80;;;;;;;3.75;77.05;98042.37;1762130;81;20987;-41
2022/03/30 02:58:14;;;;;;;63.98;36.15;;;;;;;3.71;77.36;98046.04;1761969;80;21491;-41
2022/03/30 03:00:41;;;;;;;72.22;38.55;;;;;;;3.64;77.72;98042.87;1761883;81;21002;-41
2022/03/30 03:03:08;;;;;;;68.60;37.55;;;;;;;3.59;78.09;98046.61;1761944;81;20991;-43
2022/03/30 03:05:35;;;;;;;67.80;37.53;;;;;;;3.55;78.19;98038.11;1762001;81;21500;-41
2022/03/30 03:08:03;;;;;;;82.15;38.25;;;;;;;3.52;78.20;98040.02;1762047;81;21034;-42
2022/03/30 03:10:30;;;;;;;67.55;37.25;;;;;;;3.46;78.55;98039.84;1761921;81;21508;-40
2022/03/30 03:12:56;;;;;;;;;;;;;;;3.46;78.76;98035.95;1764550;80;21022;-41
2022/03/30 03:15:23;;;;;;;69.35;37.08;;;;;;;3.45;78.77;98041.58;1761900;80;20100;-40
2022/03/30 03:17:50;;;;;;;72.17;37.00;;;;;;;3.49;77.81;98038.38;1761984;80;20987;-40
2022/03/30 03:20:17;;;;;;;70.60;37.78;;;;;;;3.46;78.34;98036.78;1762013;81;21034;-41
2022/03/30 03:22:43;;;;;;;73.95;37.13;;;;;;;3.46;78.57;98048.94;1761902;81;20976;-40
2022/03/30 03:25:11;;;;;;;70.92;36.95;;;;;;;3.49;78.48;98044.88;1761866;81;21460;-40
2022/03/30 03:27:37;;;;;;;72.67;37.23;;;;;;;3.52;78.52;98041.31;1761957;81;21022;-41
2022/03/30 03:30:08;;;;;;;69.67;39.63;;;;;;;3.50;78.70;98034.05;1762120;80;21011;-41
2022/03/30 03:32:34;;;;;;;76.20;37.83;;;;;;;3.50;78.70;98034.05;1761859;80;20978;-40
2022/03/30 03:35:01;;;;;;;75.45;37.93;;;;;;;3.54;78.78;98037.71;1761811;81;20983;-40
2022/03/30 03:37:26;;;;;;;73.78;37.93;;;;;;;3.53;78.55;98044.28;1761909;81;21563;-41
2022/03/30 03:39:52;;;;;;;71.33;37.10;;;;;;;3.52;78.73;98038.71;1761849;81;20971;-40
2022/03/30 03:42:18;;;;;;;71.10;36.45;;;;;;;3.51;78.85;98040.48;1761719;80;21031;-41
2022/03/30 03:44:44;;;;;;;73.80;39.83;;;;;;;3.52;78.91;98037.41;1762134;81;20975;-40
2022/03/30 03:47:10;;;;;;;72.85;37.90;;;;;;;3.54;79.00;98043.38;1762063;80;20999;-41
2022/03/30 03:49:37;;;;;;;71.02;38.15;;;;;;;3.55;78.78;98043.31;1762127;81;20951;-41
2022/03/30 03:52:05;;;;;;;70.75;39.23;;;;;;;3.57;78.55;98033.68;1762072;81;20991;-42
2022/03/30 03:54:31;;;;;;;68.85;38.40;;;;;;;3.55;78.83;98039.88;1761626;81;21513;-40
2022/03/30 03:56:57;;;;;;;74.92;39.53;;;;;;;3.53;78.79;98033.87;1761576;81;20979;-41
2022/03/30 03:59:24;;;;;;;76.13;40.57;;;;;;;3.47;79.07;98037.61;1761775;81;20983;-41
2022/03/30 04:01:50;;;;;;;73.02;39.95;;;;;;;3.42;79.31;98036.98;1761633;81;21039;-40
2022/03/30 04:04:17;;;;;;;79.12;40.58;;;;;;;3.40;78.58;98040.97;1761646;81;20959;-41
2022/03/30 04:06:43;;;;;;;79.90;40.35;;;;;;;3.35;79.06;98037.73;1761704;81;21011;-40
2022/03/30 04:09:08;;;;;;;74.10;38.98;;;;;;;3.34;79.37;98034.73;1761544;81;20987;-40
2022/03/30 04:11:34;;;;;;;80.70;40.55;;;;;;;3.33;79.11;98036.97;1761572;81;20984;-40
2022/03/30 04:14:00;;;;;;;83.65;43.52;;;;;;;3.25;79.54;98038.59;1761527;80;21517;-40
2022/03/30 04:16:26;;;;;;;78.97;40.70;;;;;;;3.24;78.30;98039.53;1761621;81;20983;-40
2022/03/30 04:18:52;;;;;;;80.32;41.15;;;;;;;3.21;79.07;98041.42;1761527;80;21007;-41
2022/03/30 04:21:18;;;;;;;79.60;41.58;;;;;;;3.20;79.83;98042.31;1761519;81;20978;-41
2022/03/30 04:23:44;;;;;;;80.07;41.23;;;;;;;3.22;79.55;98044.39;1761517;81;21019;-42
2022/03/30 04:26:11;;;;;;;77.22;40.05;;;;;;;3.23;79.76;98040.42;1761571;81;20991;-40
2022/03/30 04:28:40;;;;;;;82.37;39.15;;;;;;;3.23;79.85;98040.89;1761634;80;21034;-40
2022/03/30 04:31:04;;;;;;;80.15;41.33;;;;;;;3.22;79.86;98049.15;1761270;81;20967;-42
2022/03/30 04:33:30;;;;;;;72.65;40.75;;;;;;;3.18;79.99;98046.28;1761577;81;21460;-41
2022/03/30 04:35:56;;;;;;;80.22;41.08;;;;;;;3.19;80.08;98047.14;1761589;81;21018;-40
2022/03/30 04:38:22;;;;;;;85.12;42.00;;;;;;;3.19;79.96;98040.66;1761527;81;20983;-40
2022/03/30 04:40:47;;;;;;;86.00;41.80;;;;;;;3.19;79.85;98041.48;1761565;80;20983;-40
2022/03/30 04:43:13;;;;;;;81.57;41.95;;;;;;;3.18;79.87;98043.68;1761463;80;21011;-41
2022/03/30 04:45:39;;;;;;;80.55;41.00;;;;;;;3.21;79.89;98045.31;1761774;80;20987;-41
2022/03/30 04:48:05;;;;;;;83.33;42.48;;;;;;;3.20;79.76;98047.52;1761592;81;20991;-41
2022/03/30 04:50:31;;;;;;;81.32;42.90;;;;;;;3.18;79.75;98048.88;1761535;81;21503;-41
2022/03/30 04:52:57;;;;;;;87.65;43.42;;;;;;;3.17;80.06;98059.36;1761543;80;20983;-40
2022/03/30 04:55:22;;;;;;;79.72;44.13;;;;;;;3.15;79.94;98052.10;1761544;81;20983;-40
2022/03/30 04:57:48;;;;;;;86.37;45.23;;;;;;;3.13;79.94;98052.59;1761508;81;20952;-41
2022/03/30 05:00:14;;;;;;;91.65;44.63;;;;;;;3.08;79.92;98049.77;1761500;81;20987;-42
2022/03/30 05:02:40;;;;;;;82.10;44.35;;;;;;;3.06;79.95;98049.45;1761506;81;20991;-41
2022/03/30 05:05:09;;;;;;;92.78;45.17;;;;;;;3.04;80.09;98047.39;1761511;80;20979;-41
2022/03/30 05:07:36;;;;;;;96.78;46.50;;;;;;;3.00;79.87;98045.38;1761624;81;20979;-41
2022/03/30 05:10:05;;;;;;;88.35;46.13;;;;;;;2.99;80.24;98039.78;1761500;81;20987;-42
2022/03/30 05:12:31;;;;;;;90.30;45.98;;;;;;;3.01;80.07;98039.72;1761494;80;20975;-42
2022/03/30 05:14:57;;;;;;;90.53;47.60;;;;;;;3.03;80.58;98036.59;1761532;81;21014;-42
2022/03/30 05:17:23;;;;;;;88.75;47.93;;;;;;;3.06;80.81;98040.36;1761506;80;21015;-43
2022/03/30 05:19:49;;;;;;;88.60;44.70;;;;;;;3.10;80.52;98045.80;1761514;81;20992;-42
2022/03/30 05:22:15;;;;;;;90.55;47.58;;;;;;;3.13;80.54;98051.30;1761490;81;20959;-42
2022/03/30 05:24:41;;;;;;;90.20;46.98;;;;;;;3.15;80.39;98043.01;1761495;81;21472;-42
2022/03/30 05:27:09;;;;;;;89.22;47.70;;;;;;;3.18;80.40;98049.34;1761455;81;21050;-41
2022/03/30 05:29:36;;;;;;;85.95;46.33;;;;;;;3.22;80.20;98046.98;1761507;81;21325;-42
2022/03/30 05:32:02;;;;;;;95.15;48.75;;;;;;;3.27;80.15;98054.12;1761628;81;20988;-41
2022/03/30 05:34:28;;;;;;;96.92;47.35;;;;;;;3.30;79.99;98053.98;1761452;81;20960;-42
2022/03/30 05:36:54;;;;;;;87.05;47.17;;;;;;;3.36;79.58;98057.59;1761492;81;21027;-42
2022/03/30 05:39:20;;;;;;;89.95;46.13;;;;;;;3.39;79.40;98058.77;1761478;81;20960;-43
2022/03/30 05:41:45;;;;;;;88.72;47.98;;;;;;;3.41;79.20;98054.80;1761398;81;20999;-42
2022/03/30 05:44:11;;;;;;;102.70;50.00;;;;;;;3.45;79.12;98054.57;1761484;80;21034;-41
2022/03/30 05:46:37;;;;;;;90.22;45.40;;;;;;;3.48;78.88;98060.10;1761469;81;20988;-42
2022/03/30 05:49:05;;;;;;;84.28;45.88;;;;;;;3.52;78.59;98055.61;1761479;81;20977;-42
2022/03/30 05:51:31;;;;;;;86.60;45.88;;;;;;;3.53;78.34;98054.67;1760796;81;20952;-48
2022/03/30 05:53:56;;;;;;;96.12;46.85;;;;;;;3.53;78.17;98057.27;1761422;81;20991;-42
2022/03/30 05:57:00;;;;;;;84.13;43.20;;;;;;;3.53;78.27;98058.14;1761575;81;20987;-42
2022/03/30 05:58:50;;;;;;;;;;;;;;;3.55;77.74;98050.27;1761471;81;21035;-42
2022/03/30 06:01:15;;;;;;;76.30;41.37;;;;;;;3.54;77.97;98057.67;1761421;81;20149;-41
2022/03/30 06:03:42;;;;;;;77.87;40.30;;;;;;;3.55;78.10;98061.97;1761472;81;20956;-42
2022/03/30 06:06:08;;;;;;;82.60;43.58;;;;;;;3.56;77.63;98063.17;1761600;81;20979;-42
2022/03/30 06:08:34;;;;;;;85.90;44.27;;;;;;;3.57;77.47;98058.84;1761438;81;20976;-42
2022/03/30 06:11:00;;;;;;;80.53;40.17;;;;;;;3.58;77.40;98060.05;1761547;81;20948;-42
2022/03/30 06:13:26;;;;;;;80.87;40.98;;;;;;;3.56;77.16;98063.17;1761583;81;20976;-42
2022/03/30 06:15:52;;;;;;;78.60;39.08;;;;;;;3.63;76.80;98061.14;1761465;81;20994;-42
2022/03/30 06:18:18;;;;;;;78.17;38.45;;;;;;;3.62;76.82;98064.20;1761500;81;20979;-42
2022/03/30 06:20:44;;;;;;;69.60;34.08;;;;;;;3.69;76.72;98062.14;1759668;81;21530;-42
2022/03/30 06:23:11;;;;;;;66.80;35.88;;;;;;;3.75;76.00;98061.03;1756243;80;21402;-44
2022/03/30 06:25:37;;;;;;;82.17;38.67;;;;;;;3.77;75.83;98062.64;1756277;82;21309;-43
2022/03/30 06:28:04;;;;;;;67.87;33.73;;;;;;;3.86;75.73;98061.36;1755959;80;20991;-43
2022/03/30 06:30:30;;;;;;;71.87;34.03;;;;;;;3.95;75.25;98060.92;1756053;80;20991;-43
2022/03/30 06:32:56;;;;;;;66.33;34.08;;;;;;;4.01;74.98;98063.22;1756148;81;21566;-40
2022/03/30 06:35:23;;;;;;;70.50;35.30;;;;;;;4.06;74.67;98056.50;1756098;82;20984;-43
2022/03/30 06:37:49;;;;;;;73.23;34.47;;;;;;;4.14;74.57;98057.42;1756438;80;21023;-41
2022/03/30 06:40:17;;;;;;;57.90;31.73;;;;;;;4.21;73.75;98055.73;1756218;82;20988;-41
2022/03/30 06:42:44;;;;;;;58.15;29.82;;;;;;;4.25;72.90;98064.23;1755196;81;21008;-42
2022/03/30 06:45:11;;;;;;;78.92;31.33;;;;;;;4.20;72.02;98064.48;1753864;82;21023;-41
2022/03/30 06:47:37;;;;;;;65.17;31.17;;;;;;;4.23;71.88;98064.31;1753868;81;21468;-41
2022/03/30 06:50:05;;;;;;;68.30;30.15;;;;;;;4.20;71.84;98061.88;1753881;82;20970;-42
2022/03/30 06:52:32;;;;;;;62.53;32.58;;;;;;;4.27;71.78;98057.19;1753856;82;20983;-41
2022/03/30 06:54:59;;;;;;;52.53;26.17;;;;;;;4.35;71.89;98065.48;1753961;82;21027;-42
2022/03/30 06:57:27;;;;;;;52.45;25.65;;;;;;;4.43;71.25;98063.78;1753858;81;21015;-42
2022/03/30 06:59:53;;;;;;;;;;;;;;;4.45;70.07;98060.64;1756329;82;21290;-42
2022/03/30 07:02:19;;;;;;;52.88;25.48;;;;;;;4.50;69.92;98065.63;1753755;81;20370;-42
2022/03/30 07:04:45;;;;;;;57.20;25.92;;;;;;;4.59;70.15;98062.56;1753655;81;20983;-41
2022/03/30 07:10:15;;;;;;;48.35;23.95;;;;;;;4.73;68.61;98067.91;1753719;82;21035;-42
2022/03/30 07:12:50;;;;;;;47.15;23.32;;;;;;;4.76;67.41;98070.81;1753643;82;20971;-41
2022/03/30 07:15:17;;;;;;;46.95;24.20;;;;;;;4.84;67.89;98067.37;1753616;81;21441;-42
2022/03/30 07:17:52;;;;;;;56.73;26.12;;;;;;;4.94;68.65;98067.25;1754072;82;20955;-41
2022/03/30 07:20:20;;;;;;;55.38;27.02;;;;;;;5.03;67.85;98069.84;1753497;82;21144;-43
2022/03/30 07:22:48;;;;;;;55.08;25.70;;;;;;;5.17;68.31;98074.34;1753734;82;20959;-42
2022/03/30 07:25:14;;;;;;;;;;;;;;;5.29;67.66;98066.32;1756385;82;21453;-41
2022/03/30 07:27:51;;;;;;;50.58;21.48;;;;;;;5.39;66.52;98074.88;1753906;81;20427;-42
2022/03/30 07:30:19;;;;;;;38.43;17.87;;;;;;;5.56;67.26;98071.81;1754401;82;20982;-42
2022/03/30 07:32:47;;;;;;;53.63;24.12;;;;;;;5.62;63.92;98073.24;1753795;82;21457;-43
2022/03/30 07:35:16;;;;;;;;;;;;;;;5.73;65.58;98073.05;1756474;82;21006;-43
2022/03/30 07:37:43;;;;;;;41.95;18.55;;;;;;;5.83;64.65;98077.76;1753785;81;20119;-43
2022/03/30 07:40:11;;;;;;;;;;;;;;;5.88;63.19;98080.95;1756453;81;20979;-43
2022/03/30 07:42:37;;;;;;;30.97;16.25;;;;;;;6.01;63.27;98085.06;1752933;81;20118;-44
2022/03/30 07:45:05;;;;;;;39.78;16.27;;;;;;;6.07;63.05;98087.31;1747607;82;21437;-43
2022/03/30 07:47:31;;;;;;;39.23;17.23;;;;;;;6.25;62.52;98090.66;1747490;82;20972;-43
2022/03/30 07:49:58;;;;;;;29.23;13.03;;;;;;;6.40;61.06;98093.68;1747356;82;20975;-44
2022/03/30 07:52:23;;;;;;;25.92;12.25;;;;;;;6.46;56.69;98092.04;1747789;82;21520;-44
2022/03/30 07:54:51;;;;;;;28.05;10.93;;;;;;;6.70;55.93;98091.55;1747395;82;20956;-44
2022/03/30 07:57:20;;;;;;;18.60;8.93;;;;;;;6.96;55.74;98083.93;1747533;82;20980;-44
2022/03/30 07:59:47;;;;;;;24.57;11.20;;;;;;;7.30;56.85;98091.88;1747350;82;20960;-44
2022/03/30 08:02:15;;;;;;;;;;;;;;;7.33;54.16;98086.47;1750207;82;21516;-43
2022/03/30 08:04:40;;;;;;;23.38;11.43;;;;;;;7.44;54.60;98093.63;1747256;82;20115;-42
2022/03/30 08:07:06;;;;;;;21.75;10.20;;;;;;;7.55;55.91;98082.50;1747503;82;20974;-44
2022/03/30 08:09:31;;;;;;;21.62;9.43;;;;;;;7.81;54.41;98096.59;1747426;81;20983;-42
2022/03/30 08:11:57;;;;;;;30.40;10.43;;;;;;;8.03;52.43;98085.11;1747301;82;21011;-44
2022/03/30 08:14:23;;;;;;;22.37;9.03;;;;;;;8.34;50.32;98096.70;1747497;82;20948;-42
2022/03/30 08:16:48;;;;;;;23.27;9.28;;;;;;;8.40;51.18;98098.46;1747322;82;21088;-43
2022/03/30 08:19:14;;;;;;;22.93;8.83;;;;;;;8.43;49.13;98094.34;1747432;81;21509;-43
2022/03/30 08:24:24;;;;;;;22.95;9.15;;;;;;;8.48;51.08;98094.05;1747511;82;20963;-44
2022/03/30 08:26:49;;;;;;;32.28;9.50;;;;;;;8.48;50.40;98087.50;1747330;82;21148;-43
2022/03/30 08:29:16;;;;;;;19.50;8.90;;;;;;;8.53;50.77;98091.11;1747524;82;20992;-43
2022/03/30 08:31:42;;;;;;;23.07;8.80;;;;;;;8.59;51.07;98090.73;1747583;82;20975;-42
2022/03/30 08:34:08;;;;;;;17.87;7.85;;;;;;;8.68;51.23;98093.18;1747244;82;21460;-43
2022/03/30 08:36:34;;;;;;;28.05;10.30;;;;;;;8.67;49.97;98096.28;1747499;81;20979;-44
2022/03/30 08:39:10;;;;;;;23.18;9.30;;;;;;;8.72;49.54;98091.58;1747466;82;20987;-43
2022/03/30 08:41:31;;;;;;;19.27;8.30;;;;;;;8.77;49.23;98093.42;1739655;82;21409;-43
2022/03/30 08:44:00;;;;;;;17.48;7.92;;;;;;;8.88;50.34;98086.59;1760281;79;21003;-45
2022/03/30 08:46:26;;;;;;;16.97;7.10;;;;;;;8.91;49.29;98083.78;1789059;80;21029;-46
2022/03/30 08:48:51;;;;;;;21.02;8.28;;;;;;;9.12;47.92;98078.39;1792882;79;21590;-44
2022/03/30 08:51:20;;;;;;;15.58;7.12;;;;;;;9.01;47.09;98086.98;1793092;80;20954;-45
2022/03/30 08:53:47;;;;;;;22.95;7.55;;;;;;;8.81;46.09;98078.33;1793159;79;21431;-44
2022/03/30 08:56:13;;;;;;;69.03;7.55;;;;;;;8.94;47.42;98079.65;1744640;80;20975;-45
2022/03/30 08:58:39;;;;;;;14.90;5.78;;;;;;;8.93;46.25;98074.89;1750364;80;20959;-45
2022/03/30 09:01:11;;;;;;;18.07;6.67;;;;;;;9.03;45.20;98074.60;1760403;81;20963;-43
2022/03/30 09:03:55;;;;;;;19.35;6.45;;;;;;;9.04;45.66;98078.09;1756035;80;21445;-43
2022/03/30 09:06:46;;;;;;;16.93;6.40;;;;;;;9.06;43.56;98073.57;1749458;81;21834;-42
2022/03/30 09:09:15;;;;;;;15.28;5.97;;;;;;;9.34;45.24;98078.22;1730582;82;21483;-43
2022/03/30 09:11:48;;;;;;;17.57;7.00;;;;;;;9.33;43.46;98071.28;1745640;81;20951;-42
2022/03/30 09:14:13;;;;;;;21.52;7.25;;;;;;;9.07;44.14;98064.74;1760818;81;21018;-43
2022/03/30 09:16:49;;;;;;;23.00;7.15;;;;;;;9.23;44.65;98062.73;1760938;81;20952;-44
2022/03/30 09:19:17;;;;;;;21.00;7.10;;;;;;;9.45;44.61;98063.03;1761062;81;20956;-43
2022/03/30 09:21:50;;;;;;;18.23;7.40;;;;;;;9.68;43.36;98057.00;1760940;81;21456;-44
2022/03/30 09:24:20;;;;;;;17.37;7.30;;;;;;;9.91;43.64;98071.08;1761005;81;20956;-44
2022/03/30 09:26:48;;;;;;;21.45;7.72;;;;;;;10.28;44.49;98055.77;1761060;81;21477;-44
2022/03/30 09:29:14;;;;;;;21.62;7.25;;;;;;;10.37;41.79;98055.95;1761025;81;21503;-43
2022/03/30 09:31:42;;;;;;;16.23;6.03;;;;;;;10.68;43.10;98045.77;1761368;81;21906;-44
2022/03/30 09:34:09;;;;;;;;;;;;;;;10.53;42.35;98053.02;1763546;81;21027;-44
2022/03/30 09:36:39;;;;;;;15.83;5.80;;;;;;;10.31;40.01;98054.23;1761281;81;20113;-44
2022/03/30 09:39:09;;;;;;;19.10;6.17;;;;;;;10.27;40.21;98039.14;1760815;81;21002;-45
2022/03/30 09:41:51;;;;;;;15.25;5.78;;;;;;;10.38;41.38;98047.58;1760939;81;20967;-43
2022/03/30 09:44:18;;;;;;;16.35;5.72;;;;;;;10.24;41.19;98054.30;1753017;80;21020;-44
2022/03/30 09:47:05;;;;;;;10.05;5.40;;;;;;;10.12;41.12;98045.54;1747698;82;20972;-45
2022/03/30 09:49:38;;;;;;;14.50;5.28;;;;;;;10.02;40.52;98034.84;1746745;81;22123;-43
2022/03/30 09:52:21;;;;;;;14.05;5.80;;;;;;;10.08;41.77;98037.53;1747852;81;21027;-47
2022/03/30 09:54:55;;;;;;;25.40;6.83;;;;;;;10.15;41.55;98038.73;1742130;81;20975;-44
2022/03/30 09:57:38;;;;;;;16.12;5.58;;;;;;;10.18;42.10;98031.94;1747619;81;21462;-45
2022/03/30 10:00:15;;;;;;;13.35;5.75;;;;;;;10.20;41.34;98026.09;1747866;82;20977;-45
2022/03/30 10:02:52;;;;;;;19.97;6.90;;;;;;;10.48;41.75;98017.03;1747929;81;20968;-46
2022/03/30 10:05:21;;;;;;;;;;;;;;;10.58;41.45;98020.28;1750292;81;20960;-45
2022/03/30 10:07:47;;;;;;;9.23;4.42;;;;;;;10.82;39.86;98021.52;1747767;81;20093;-45
2022/03/30 10:10:17;;;;;;;14.75;5.05;;;;;;;11.21;39.48;98024.66;1747633;81;21232;-44
2022/03/30 10:12:44;;;;;;;13.90;5.47;;;;;;;11.01;39.34;98023.58;1747697;81;20984;-44
2022/03/30 10:15:12;;;;;;;10.18;4.40;;;;;;;11.00;39.28;98022.72;1748116;81;20968;-45
2022/03/30 10:17:39;;;;;;;10.40;4.78;;;;;;;11.24;40.55;98015.20;1747639;81;20948;-44
2022/03/30 10:20:08;;;;;;;13.05;5.37;;;;;;;11.80;39.16;98013.79;1747957;81;21019;-44
2022/03/30 10:23:14;;;;;;;16.25;4.65;;;;;;;11.95;39.12;98013.09;1747398;81;20956;-44
2022/03/30 10:26:08;;;;;;;17.17;6.17;;;;;;;11.81;38.26;98012.02;1739926;81;21011;-44
2022/03/30 10:28:45;;;;;;;13.13;5.25;;;;;;;11.29;37.75;98018.30;1718032;83;21027;-44
2022/03/30 10:31:12;;;;;;;13.15;4.95;;;;;;;11.12;38.19;98015.20;1720113;82;21326;-46
2022/03/30 10:33:42;;;;;;;14.30;4.42;;;;;;;11.10;38.48;98013.66;1747617;81;20984;-44
2022/03/30 10:36:27;;;;;;;13.72;5.28;;;;;;;10.96;38.16;98010.77;1747848;82;21011;-44
2022/03/30 10:39:24;;;;;;;13.95;5.10;;;;;;;10.88;38.58;98000.02;1747847;81;20960;-44
2022/03/30 10:42:09;;;;;;;15.10;6.00;;;;;;;10.65;38.70;98004.41;1730847;82;21442;-44
2022/03/30 10:44:59;;;;;;;12.23;5.70;;;;;;;10.70;38.44;98000.95;1755525;80;21054;-47
2022/03/30 10:47:29;;;;;;;18.77;6.47;;;;;;;11.35;39.17;97995.47;1761140;81;21030;-46
2022/03/30 10:50:00;;;;;;;20.65;7.33;;;;;;;11.71;38.50;97994.78;1761061;81;21022;-45
2022/03/30 10:52:41;;;;;;;21.25;6.35;;;;;;;11.87;37.72;97994.38;1760942;81;21022;-46
2022/03/30 10:55:19;;;;;;;15.18;4.95;;;;;;;12.01;37.70;97997.25;1761023;81;20983;-46
2022/03/30 10:57:58;;;;;;;13.10;4.75;;;;;;;12.05;37.46;97995.54;1761023;81;20975;-45
2022/03/30 11:00:36;;;;;;;;;;;;;;;12.63;35.58;97993.81;1763512;81;21480;-44
2022/03/30 11:03:20;;;;;;;17.35;5.00;;;;;;;13.49;33.85;97996.65;1760825;81;20116;-51
2022/03/30 11:06:05;;;;;;;10.85;4.37;;;;;;;14.18;34.25;97991.80;1761099;81;20950;-46
2022/03/30 11:08:42;;;;;;;12.73;4.83;;;;;;;14.37;34.05;97993.58;1760964;81;21441;-46
2022/03/30 11:12:02;;;;;;;13.15;4.47;;;;;;;14.84;34.07;97987.55;1761220;81;21520;-50
2022/03/30 11:14:24;;;;;;;14.13;4.90;;;;;;;14.63;31.90;97983.79;1751706;81;20948;-45
2022/03/30 11:16:55;;;;;;;17.70;6.50;;;;;;;14.57;33.70;97990.42;1760718;81;20951;-46
2022/03/30 11:19:29;;;;;;;14.85;6.30;;;;;;;15.05;32.29;97982.06;1760901;81;20948;-46
2022/03/30 11:22:12;;;;;;;14.28;4.97;;;;;;;14.38;32.58;98003.20;1760649;81;21488;-45
2022/03/30 11:24:44;;;;;;;11.97;4.37;;;;;;;14.08;32.75;98001.52;1760862;81;21483;-47
2022/03/30 11:27:16;;;;;;;12.33;4.80;;;;;;;14.64;32.62;97986.77;1761236;80;21919;-44
2022/03/30 11:29:47;;;;;;;15.72;4.55;;;;;;;14.43;32.55;97985.59;1760961;81;20982;-46
2022/03/30 11:32:32;;;;;;;12.78;4.20;;;;;;;14.47;32.57;97975.08;1761209;81;20960;-45
2022/03/30 11:35:01;;;;;;;17.85;5.17;;;;;;;14.53;31.32;97994.33;1761028;81;20971;-48
2022/03/30 11:37:37;;;;;;;9.20;4.03;;;;;;;15.35;30.07;97979.14;1760266;81;20987;-45
2022/03/30 11:40:11;;;;;;;13.40;3.52;;;;;;;16.26;30.77;97981.39;1760977;81;21511;-50
2022/03/30 11:42:44;;;;;;;17.70;5.97;;;;;;;16.86;28.88;97971.39;1761188;81;21634;-46
2022/03/30 11:45:19;;;;;;;11.95;4.12;;;;;;;17.74;26.85;97971.11;1684438;83;21070;-47
2022/03/30 11:47:54;;;;;;;13.85;5.42;;;;;;;18.42;27.76;97971.86;1746820;81;20965;-49
2022/03/30 11:50:37;;;;;;;13.75;5.37;;;;;;;19.45;25.43;97960.48;1747954;81;20984;-47